sensor_id;sensor_type;location;lat;lon;timestamp;P1;durP1;ratioP1;P2;durP2;ratioP2
16308;SDS011;8263;48.880;9.276;2023-03-11T00:01:14;141.00;;;130.75;;
16308;SDS011;8263;48.880;9.276;2023-03-11T00:03:42;139.30;;;129.20;;
16308;SDS011;8263;48.880;9.276;2023-03-11T00:06:09;139.88;;;129.73;;
16308;SDS011;8263;48.880;9.276;2023-03-11T00:08:35;139.60;;;129.50;;
16308;SDS011;8263;48.880;9.276;2023-03-11T00:11:02;139.82;;;129.68;;
16308;SDS011;8263;48.880;9.276;2023-03-11T00:13:29;141.52;;;131.23;;
16308;SDS011;8263;48.880;9.276;2023-03-11T00:15:56;141.43;;;131.13;;
16308;SDS011;8263;48.880;9.276;2023-03-11T00:18:23;140.35;;;130.15;;
16308;SDS011;8263;48.880;9.276;2023-03-11T00:20:53;141.00;;;130.75;;
16308;SDS011;8263;48.880;9.276;2023-03-11T00:23:19;140.57;;;130.38;;
16308;SDS011;8263;48.880;9.276;2023-03-11T00:25:46;141.60;;;131.30;;
16308;SDS011;8263;48.880;9.276;2023-03-11T00:28:13;138.90;;;128.85;;
16308;SDS011;8263;48.880;9.276;2023-03-11T00:30:40;140.18;;;129.98;;
16308;SDS011;8263;48.880;9.276;2023-03-11T00:33:07;140.05;;;129.88;;
16308;SDS011;8263;48.880;9.276;2023-03-11T00:35:34;140.35;;;130.15;;
16308;SDS011;8263;48.880;9.276;2023-03-11T00:38:03;139.88;;;129.73;;
16308;SDS011;8263;48.880;9.276;2023-03-11T00:40:30;140.50;;;130.27;;
16308;SDS011;8263;48.880;9.276;2023-03-11T00:42:57;141.65;;;131.32;;
16308;SDS011;8263;48.880;9.276;2023-03-11T00:45:24;140.82;;;130.57;;
16308;SDS011;8263;48.880;9.276;2023-03-11T00:47:51;141.95;;;131.57;;
16308;SDS011;8263;48.880;9.276;2023-03-11T00:50:21;141.23;;;130.93;;
16308;SDS011;8263;48.880;9.276;2023-03-11T00:52:48;141.55;;;131.25;;
16308;SDS011;8263;48.880;9.276;2023-03-11T00:55:17;140.88;;;130.63;;
16308;SDS011;8263;48.880;9.276;2023-03-11T00:57:44;141.25;;;130.95;;
16308;SDS011;8263;48.880;9.276;2023-03-11T01:00:12;142.30;;;131.90;;
16308;SDS011;8263;48.880;9.276;2023-03-11T01:02:38;143.23;;;132.73;;
16308;SDS011;8263;48.880;9.276;2023-03-11T01:05:05;141.73;;;131.38;;
16308;SDS011;8263;48.880;9.276;2023-03-11T01:07:32;141.43;;;131.10;;
16308;SDS011;8263;48.880;9.276;2023-03-11T01:09:58;141.95;;;131.57;;
16308;SDS011;8263;48.880;9.276;2023-03-11T01:12:26;141.15;;;130.85;;
16308;SDS011;8263;48.880;9.276;2023-03-11T01:14:52;140.85;;;130.57;;
16308;SDS011;8263;48.880;9.276;2023-03-11T01:17:19;142.27;;;131.88;;
16308;SDS011;8263;48.880;9.276;2023-03-11T01:19:46;142.75;;;132.30;;
16308;SDS011;8263;48.880;9.276;2023-03-11T01:22:12;141.95;;;131.57;;
16308;SDS011;8263;48.880;9.276;2023-03-11T01:24:39;142.95;;;132.45;;
16308;SDS011;8263;48.880;9.276;2023-03-11T01:27:08;141.75;;;131.40;;
16308;SDS011;8263;48.880;9.276;2023-03-11T01:29:36;142.32;;;131.90;;
16308;SDS011;8263;48.880;9.276;2023-03-11T01:32:03;142.48;;;132.07;;
16308;SDS011;8263;48.880;9.276;2023-03-11T01:34:29;142.35;;;131.75;;
16308;SDS011;8263;48.880;9.276;2023-03-11T01:36:57;142.25;;;131.85;;
16308;SDS011;8263;48.880;9.276;2023-03-11T01:39:24;142.13;;;131.73;;
16308;SDS011;8263;48.880;9.276;2023-03-11T01:41:50;141.02;;;130.73;;
16308;SDS011;8263;48.880;9.276;2023-03-11T01:44:17;140.88;;;130.57;;
16308;SDS011;8263;48.880;9.276;2023-03-11T01:49:30;142.43;;;131.98;;
16308;SDS011;8263;48.880;9.276;2023-03-11T01:51:57;143.68;;;132.88;;
16308;SDS011;8263;48.880;9.276;2023-03-11T01:54:29;144.30;;;133.18;;
16308;SDS011;8263;48.880;9.276;2023-03-11T01:56:56;144.82;;;134.13;;
16308;SDS011;8263;48.880;9.276;2023-03-11T01:59:24;144.02;;;133.43;;
16308;SDS011;8263;48.880;9.276;2023-03-11T02:01:54;146.18;;;135.35;;
16308;SDS011;8263;48.880;9.276;2023-03-11T02:04:27;144.40;;;133.70;;
16308;SDS011;8263;48.880;9.276;2023-03-11T02:06:55;144.43;;;133.77;;
16308;SDS011;8263;48.880;9.276;2023-03-11T02:09:22;142.95;;;132.45;;
16308;SDS011;8263;48.880;9.276;2023-03-11T02:11:52;142.27;;;131.82;;
16308;SDS011;8263;48.880;9.276;2023-03-11T02:14:19;145.40;;;134.65;;
16308;SDS011;8263;48.880;9.276;2023-03-11T02:16:46;143.00;;;132.50;;
16308;SDS011;8263;48.880;9.276;2023-03-11T02:19:14;143.18;;;132.68;;
16308;SDS011;8263;48.880;9.276;2023-03-11T02:21:43;142.15;;;131.73;;
16308;SDS011;8263;48.880;9.276;2023-03-11T02:24:12;143.75;;;133.15;;
16308;SDS011;8263;48.880;9.276;2023-03-11T02:26:47;143.75;;;132.80;;
16308;SDS011;8263;48.880;9.276;2023-03-11T02:29:13;143.52;;;132.73;;
16308;SDS011;8263;48.880;9.276;2023-03-11T02:31:40;142.85;;;132.35;;
16308;SDS011;8263;48.880;9.276;2023-03-11T02:34:08;144.65;;;133.95;;
16308;SDS011;8263;48.880;9.276;2023-03-11T02:36:37;143.60;;;133.02;;
16308;SDS011;8263;48.880;9.276;2023-03-11T02:39:04;141.82;;;131.43;;
16308;SDS011;8263;48.880;9.276;2023-03-11T02:41:31;143.50;;;132.90;;
16308;SDS011;8263;48.880;9.276;2023-03-11T02:43:59;143.27;;;132.75;;
16308;SDS011;8263;48.880;9.276;2023-03-11T02:46:26;144.57;;;133.88;;
16308;SDS011;8263;48.880;9.276;2023-03-11T02:48:53;143.05;;;132.55;;
16308;SDS011;8263;48.880;9.276;2023-03-11T02:51:19;142.10;;;131.68;;
16308;SDS011;8263;48.880;9.276;2023-03-11T02:53:46;143.35;;;132.80;;
16308;SDS011;8263;48.880;9.276;2023-03-11T02:56:14;144.27;;;133.65;;
16308;SDS011;8263;48.880;9.276;2023-03-11T02:58:40;142.50;;;131.90;;
16308;SDS011;8263;48.880;9.276;2023-03-11T03:01:08;144.85;;;134.15;;
16308;SDS011;8263;48.880;9.276;2023-03-11T03:03:35;144.65;;;133.95;;
16308;SDS011;8263;48.880;9.276;2023-03-11T03:06:01;143.18;;;132.68;;
16308;SDS011;8263;48.880;9.276;2023-03-11T03:08:27;142.90;;;132.40;;
16308;SDS011;8263;48.880;9.276;2023-03-11T03:10:54;144.73;;;134.02;;
16308;SDS011;8263;48.880;9.276;2023-03-11T03:13:20;143.40;;;132.82;;
16308;SDS011;8263;48.880;9.276;2023-03-11T03:15:47;143.63;;;133.05;;
16308;SDS011;8263;48.880;9.276;2023-03-11T03:18:14;143.07;;;132.57;;
16308;SDS011;8263;48.880;9.276;2023-03-11T03:20:41;142.70;;;132.20;;
16308;SDS011;8263;48.880;9.276;2023-03-11T03:23:07;142.00;;;131.60;;
16308;SDS011;8263;48.880;9.276;2023-03-11T03:25:34;142.98;;;132.48;;
16308;SDS011;8263;48.880;9.276;2023-03-11T03:28:00;144.95;;;134.25;;
16308;SDS011;8263;48.880;9.276;2023-03-11T03:30:27;142.60;;;132.10;;
16308;SDS011;8263;48.880;9.276;2023-03-11T03:32:54;143.77;;;133.18;;
16308;SDS011;8263;48.880;9.276;2023-03-11T03:35:21;144.40;;;133.75;;
16308;SDS011;8263;48.880;9.276;2023-03-11T03:37:48;143.93;;;133.32;;
16308;SDS011;8263;48.880;9.276;2023-03-11T03:40:14;143.68;;;133.07;;
16308;SDS011;8263;48.880;9.276;2023-03-11T03:42:40;143.93;;;133.30;;
16308;SDS011;8263;48.880;9.276;2023-03-11T03:45:07;143.57;;;132.98;;
16308;SDS011;8263;48.880;9.276;2023-03-11T03:47:35;142.27;;;131.82;;
16308;SDS011;8263;48.880;9.276;2023-03-11T03:50:01;144.20;;;133.52;;
16308;SDS011;8263;48.880;9.276;2023-03-11T03:52:29;144.90;;;134.20;;
16308;SDS011;8263;48.880;9.276;2023-03-11T03:54:56;145.73;;;134.93;;
16308;SDS011;8263;48.880;9.276;2023-03-11T03:57:22;143.88;;;133.27;;
16308;SDS011;8263;48.880;9.276;2023-03-11T03:59:48;143.68;;;133.02;;
16308;SDS011;8263;48.880;9.276;2023-03-11T04:02:15;146.45;;;134.43;;
16308;SDS011;8263;48.880;9.276;2023-03-11T04:04:41;143.05;;;132.52;;
16308;SDS011;8263;48.880;9.276;2023-03-11T04:07:08;143.57;;;132.98;;
16308;SDS011;8263;48.880;9.276;2023-03-11T04:09:37;143.70;;;133.10;;
16308;SDS011;8263;48.880;9.276;2023-03-11T04:12:03;145.68;;;134.88;;
16308;SDS011;8263;48.880;9.276;2023-03-11T04:14:30;143.93;;;133.32;;
16308;SDS011;8263;48.880;9.276;2023-03-11T04:16:56;145.80;;;135.00;;
16308;SDS011;8263;48.880;9.276;2023-03-11T04:19:23;143.27;;;132.73;;
16308;SDS011;8263;48.880;9.276;2023-03-11T04:21:50;143.80;;;133.20;;
16308;SDS011;8263;48.880;9.276;2023-03-11T04:24:16;144.27;;;133.60;;
16308;SDS011;8263;48.880;9.276;2023-03-11T04:26:44;145.45;;;134.65;;
16308;SDS011;8263;48.880;9.276;2023-03-11T04:29:10;147.38;;;136.35;;
16308;SDS011;8263;48.880;9.276;2023-03-11T04:31:37;144.77;;;134.07;;
16308;SDS011;8263;48.880;9.276;2023-03-11T04:34:03;146.38;;;135.48;;
16308;SDS011;8263;48.880;9.276;2023-03-11T04:36:30;144.55;;;133.85;;
16308;SDS011;8263;48.880;9.276;2023-03-11T04:38:56;144.90;;;134.18;;
16308;SDS011;8263;48.880;9.276;2023-03-11T04:41:23;145.73;;;134.93;;
16308;SDS011;8263;48.880;9.276;2023-03-11T04:43:50;145.20;;;134.45;;
16308;SDS011;8263;48.880;9.276;2023-03-11T04:46:17;145.23;;;134.43;;
16308;SDS011;8263;48.880;9.276;2023-03-11T04:48:43;145.70;;;134.88;;
16308;SDS011;8263;48.880;9.276;2023-03-11T04:51:10;145.93;;;135.07;;
16308;SDS011;8263;48.880;9.276;2023-03-11T04:53:36;145.70;;;134.90;;
16308;SDS011;8263;48.880;9.276;2023-03-11T04:56:03;146.00;;;135.18;;
16308;SDS011;8263;48.880;9.276;2023-03-11T04:58:29;146.00;;;135.18;;
16308;SDS011;8263;48.880;9.276;2023-03-11T05:00:57;145.13;;;134.35;;
16308;SDS011;8263;48.880;9.276;2023-03-11T05:03:24;146.10;;;135.23;;
16308;SDS011;8263;48.880;9.276;2023-03-11T05:05:50;145.93;;;135.10;;
16308;SDS011;8263;48.880;9.276;2023-03-11T05:08:20;144.02;;;133.32;;
16308;SDS011;8263;48.880;9.276;2023-03-11T05:10:47;145.43;;;134.63;;
16308;SDS011;8263;48.880;9.276;2023-03-11T05:13:13;145.32;;;134.52;;
16308;SDS011;8263;48.880;9.276;2023-03-11T05:15:40;145.57;;;134.77;;
16308;SDS011;8263;48.880;9.276;2023-03-11T05:18:08;147.45;;;136.45;;
16308;SDS011;8263;48.880;9.276;2023-03-11T05:20:34;146.32;;;135.43;;
16308;SDS011;8263;48.880;9.276;2023-03-11T05:23:02;147.18;;;136.18;;
16308;SDS011;8263;48.880;9.276;2023-03-11T05:25:29;147.38;;;136.38;;
16308;SDS011;8263;48.880;9.276;2023-03-11T05:27:55;147.20;;;136.20;;
16308;SDS011;8263;48.880;9.276;2023-03-11T05:30:22;146.27;;;135.38;;
16308;SDS011;8263;48.880;9.276;2023-03-11T05:32:48;147.55;;;136.55;;
16308;SDS011;8263;48.880;9.276;2023-03-11T05:35:17;145.23;;;134.43;;
16308;SDS011;8263;48.880;9.276;2023-03-11T05:37:44;147.55;;;136.55;;
16308;SDS011;8263;48.880;9.276;2023-03-11T05:40:13;144.75;;;134.02;;
16308;SDS011;8263;48.880;9.276;2023-03-11T05:42:41;146.65;;;135.73;;
16308;SDS011;8263;48.880;9.276;2023-03-11T05:45:08;147.40;;;136.40;;
16308;SDS011;8263;48.880;9.276;2023-03-11T05:47:35;145.65;;;134.82;;
16308;SDS011;8263;48.880;9.276;2023-03-11T05:50:01;145.57;;;134.77;;
16308;SDS011;8263;48.880;9.276;2023-03-11T05:52:30;146.23;;;135.32;;
16308;SDS011;8263;48.880;9.276;2023-03-11T05:54:57;144.93;;;134.15;;
16308;SDS011;8263;48.880;9.276;2023-03-11T05:57:24;146.68;;;135.75;;
16308;SDS011;8263;48.880;9.276;2023-03-11T05:59:50;142.65;;;132.15;;
16308;SDS011;8263;48.880;9.276;2023-03-11T06:02:17;143.93;;;133.27;;
16308;SDS011;8263;48.880;9.276;2023-03-11T06:04:45;144.90;;;134.15;;
16308;SDS011;8263;48.880;9.276;2023-03-11T06:07:11;145.85;;;135.02;;
16308;SDS011;8263;48.880;9.276;2023-03-11T06:09:41;146.15;;;135.25;;
16308;SDS011;8263;48.880;9.276;2023-03-11T06:12:07;146.80;;;135.85;;
16308;SDS011;8263;48.880;9.276;2023-03-11T06:14:33;147.50;;;136.50;;
16308;SDS011;8263;48.880;9.276;2023-03-11T06:17:00;146.60;;;135.70;;
16308;SDS011;8263;48.880;9.276;2023-03-11T06:19:27;148.43;;;137.32;;
16308;SDS011;8263;48.880;9.276;2023-03-11T06:21:54;145.10;;;134.32;;
16308;SDS011;8263;48.880;9.276;2023-03-11T06:24:21;146.43;;;135.52;;
16308;SDS011;8263;48.880;9.276;2023-03-11T06:26:50;148.07;;;136.98;;
16308;SDS011;8263;48.880;9.276;2023-03-11T06:29:17;146.60;;;135.68;;
16308;SDS011;8263;48.880;9.276;2023-03-11T06:31:43;146.57;;;135.57;;
16308;SDS011;8263;48.880;9.276;2023-03-11T06:34:10;147.73;;;136.68;;
16308;SDS011;8263;48.880;9.276;2023-03-11T06:36:37;147.88;;;136.82;;
16308;SDS011;8263;48.880;9.276;2023-03-11T06:39:03;145.50;;;134.68;;
16308;SDS011;8263;48.880;9.276;2023-03-11T06:41:31;148.10;;;137.00;;
16308;SDS011;8263;48.880;9.276;2023-03-11T06:43:59;147.13;;;136.13;;
16308;SDS011;8263;48.880;9.276;2023-03-11T06:46:26;148.88;;;137.70;;
16308;SDS011;8263;48.880;9.276;2023-03-11T06:48:52;147.75;;;136.70;;
16308;SDS011;8263;48.880;9.276;2023-03-11T06:51:19;146.82;;;135.85;;
16308;SDS011;8263;48.880;9.276;2023-03-11T06:53:47;148.90;;;137.68;;
16308;SDS011;8263;48.880;9.276;2023-03-11T06:56:13;147.70;;;136.63;;
16308;SDS011;8263;48.880;9.276;2023-03-11T06:58:40;146.70;;;135.73;;
16308;SDS011;8263;48.880;9.276;2023-03-11T07:01:09;146.70;;;135.73;;
16308;SDS011;8263;48.880;9.276;2023-03-11T07:03:36;147.63;;;136.57;;
16308;SDS011;8263;48.880;9.276;2023-03-11T07:06:03;148.55;;;137.43;;
16308;SDS011;8263;48.880;9.276;2023-03-11T07:08:29;148.13;;;136.90;;
16308;SDS011;8263;48.880;9.276;2023-03-11T07:10:59;146.85;;;135.88;;
16308;SDS011;8263;48.880;9.276;2023-03-11T07:13:25;147.75;;;136.45;;
16308;SDS011;8263;48.880;9.276;2023-03-11T07:15:58;148.25;;;137.15;;
16308;SDS011;8263;48.880;9.276;2023-03-11T07:18:26;147.73;;;136.65;;
16308;SDS011;8263;48.880;9.276;2023-03-11T07:20:52;147.38;;;136.35;;
16308;SDS011;8263;48.880;9.276;2023-03-11T07:23:19;148.18;;;137.07;;
16308;SDS011;8263;48.880;9.276;2023-03-11T07:25:45;147.60;;;136.57;;
16308;SDS011;8263;48.880;9.276;2023-03-11T07:28:11;147.13;;;136.13;;
16308;SDS011;8263;48.880;9.276;2023-03-11T07:30:38;146.77;;;135.77;;
16308;SDS011;8263;48.880;9.276;2023-03-11T07:33:04;148.10;;;137.00;;
16308;SDS011;8263;48.880;9.276;2023-03-11T07:35:33;147.48;;;136.48;;
16308;SDS011;8263;48.880;9.276;2023-03-11T07:38:00;147.57;;;136.50;;
16308;SDS011;8263;48.880;9.276;2023-03-11T07:40:26;147.48;;;136.45;;
16308;SDS011;8263;48.880;9.276;2023-03-11T07:42:53;148.45;;;137.32;;
16308;SDS011;8263;48.880;9.276;2023-03-11T07:45:19;146.93;;;135.93;;
16308;SDS011;8263;48.880;9.276;2023-03-11T07:47:46;147.13;;;136.13;;
16308;SDS011;8263;48.880;9.276;2023-03-11T07:50:12;148.27;;;137.18;;
16308;SDS011;8263;48.880;9.276;2023-03-11T07:52:40;147.63;;;136.60;;
16308;SDS011;8263;48.880;9.276;2023-03-11T07:55:07;148.82;;;137.65;;
16308;SDS011;8263;48.880;9.276;2023-03-11T07:57:33;146.02;;;135.15;;
16308;SDS011;8263;48.880;9.276;2023-03-11T08:00:00;148.02;;;136.82;;
16308;SDS011;8263;48.880;9.276;2023-03-11T08:02:26;148.98;;;137.75;;
16308;SDS011;8263;48.880;9.276;2023-03-11T08:04:54;148.45;;;137.35;;
16308;SDS011;8263;48.880;9.276;2023-03-11T08:07:21;146.88;;;135.93;;
16308;SDS011;8263;48.880;9.276;2023-03-11T08:09:49;148.13;;;137.02;;
16308;SDS011;8263;48.880;9.276;2023-03-11T08:12:15;147.68;;;136.63;;
16308;SDS011;8263;48.880;9.276;2023-03-11T08:14:42;147.38;;;136.35;;
16308;SDS011;8263;48.880;9.276;2023-03-11T08:17:08;146.18;;;135.27;;
16308;SDS011;8263;48.880;9.276;2023-03-11T08:19:35;147.55;;;136.52;;
16308;SDS011;8263;48.880;9.276;2023-03-11T08:22:01;145.68;;;134.88;;
16308;SDS011;8263;48.880;9.276;2023-03-11T08:24:28;148.68;;;136.63;;
16308;SDS011;8263;48.880;9.276;2023-03-11T08:26:56;147.82;;;136.75;;
16308;SDS011;8263;48.880;9.276;2023-03-11T08:29:22;146.00;;;135.13;;
16308;SDS011;8263;48.880;9.276;2023-03-11T08:31:49;147.80;;;136.70;;
16308;SDS011;8263;48.880;9.276;2023-03-11T08:34:15;148.13;;;137.02;;
16308;SDS011;8263;48.880;9.276;2023-03-11T08:36:42;147.68;;;136.55;;
16308;SDS011;8263;48.880;9.276;2023-03-11T08:39:08;148.15;;;136.90;;
16308;SDS011;8263;48.880;9.276;2023-03-11T08:41:35;147.27;;;136.25;;
16308;SDS011;8263;48.880;9.276;2023-03-11T08:44:03;147.50;;;136.50;;
16308;SDS011;8263;48.880;9.276;2023-03-11T08:46:30;146.18;;;135.27;;
16308;SDS011;8263;48.880;9.276;2023-03-11T08:48:57;147.23;;;136.23;;
16308;SDS011;8263;48.880;9.276;2023-03-11T08:51:24;147.55;;;136.50;;
16308;SDS011;8263;48.880;9.276;2023-03-11T08:53:51;148.65;;;137.07;;
16308;SDS011;8263;48.880;9.276;2023-03-11T08:56:17;145.98;;;135.15;;
16308;SDS011;8263;48.880;9.276;2023-03-11T08:58:44;148.40;;;137.30;;
16308;SDS011;8263;48.880;9.276;2023-03-11T09:01:12;147.93;;;136.88;;
16308;SDS011;8263;48.880;9.276;2023-03-11T09:03:39;146.75;;;135.80;;
16308;SDS011;8263;48.880;9.276;2023-03-11T09:06:07;146.18;;;135.30;;
16308;SDS011;8263;48.880;9.276;2023-03-11T09:08:34;144.48;;;133.77;;
16308;SDS011;8263;48.880;9.276;2023-03-11T09:11:00;145.88;;;135.05;;
16308;SDS011;8263;48.880;9.276;2023-03-11T09:13:27;141.63;;;131.23;;
16308;SDS011;8263;48.880;9.276;2023-03-11T09:15:53;146.23;;;135.32;;
16308;SDS011;8263;48.880;9.276;2023-03-11T09:18:21;145.48;;;134.68;;
16308;SDS011;8263;48.880;9.276;2023-03-11T09:20:48;144.82;;;134.13;;
16308;SDS011;8263;48.880;9.276;2023-03-11T09:23:16;145.02;;;134.32;;
16308;SDS011;8263;48.880;9.276;2023-03-11T09:25:42;144.73;;;134.02;;
16308;SDS011;8263;48.880;9.276;2023-03-11T09:28:09;143.93;;;133.30;;
16308;SDS011;8263;48.880;9.276;2023-03-11T09:30:35;143.73;;;133.13;;
16308;SDS011;8263;48.880;9.276;2023-03-11T09:33:02;144.00;;;133.38;;
16308;SDS011;8263;48.880;9.276;2023-03-11T09:35:30;143.40;;;132.82;;
16308;SDS011;8263;48.880;9.276;2023-03-11T09:37:56;142.75;;;132.25;;
16308;SDS011;8263;48.880;9.276;2023-03-11T09:40:24;144.85;;;134.13;;
16308;SDS011;8263;48.880;9.276;2023-03-11T09:42:54;143.88;;;133.27;;
16308;SDS011;8263;48.880;9.276;2023-03-11T09:45:23;142.70;;;132.20;;
16308;SDS011;8263;48.880;9.276;2023-03-11T09:47:55;141.38;;;130.98;;
16308;SDS011;8263;48.880;9.276;2023-03-11T09:50:29;141.95;;;131.50;;
16308;SDS011;8263;48.880;9.276;2023-03-11T09:53:09;143.30;;;132.80;;
16308;SDS011;8263;48.880;9.276;2023-03-11T09:55:39;141.27;;;130.90;;
16308;SDS011;8263;48.880;9.276;2023-03-11T09:58:09;143.13;;;132.48;;
16308;SDS011;8263;48.880;9.276;2023-03-11T10:00:36;140.82;;;130.52;;
16308;SDS011;8263;48.880;9.276;2023-03-11T10:03:04;141.63;;;131.23;;
16308;SDS011;8263;48.880;9.276;2023-03-11T10:05:33;139.63;;;129.43;;
16308;SDS011;8263;48.880;9.276;2023-03-11T10:08:01;142.50;;;132.05;;
16308;SDS011;8263;48.880;9.276;2023-03-11T10:10:29;141.57;;;131.23;;
16308;SDS011;8263;48.880;9.276;2023-03-11T10:12:59;140.98;;;130.63;;
16308;SDS011;8263;48.880;9.276;2023-03-11T10:15:30;142.32;;;131.90;;
16308;SDS011;8263;48.880;9.276;2023-03-11T10:18:04;140.60;;;130.35;;
16308;SDS011;8263;48.880;9.276;2023-03-11T10:20:36;141.07;;;130.52;;
16308;SDS011;8263;48.880;9.276;2023-03-11T10:23:07;140.52;;;130.32;;
16308;SDS011;8263;48.880;9.276;2023-03-11T10:25:39;139.35;;;129.25;;
16308;SDS011;8263;48.880;9.276;2023-03-11T10:28:08;139.15;;;129.05;;
16308;SDS011;8263;48.880;9.276;2023-03-11T10:30:35;139.38;;;129.13;;
16308;SDS011;8263;48.880;9.276;2023-03-11T10:33:05;140.93;;;130.63;;
16308;SDS011;8263;48.880;9.276;2023-03-11T10:35:37;139.23;;;129.13;;
16308;SDS011;8263;48.880;9.276;2023-03-11T10:38:06;141.38;;;130.98;;
16308;SDS011;8263;48.880;9.276;2023-03-11T10:40:36;138.60;;;128.60;;
16308;SDS011;8263;48.880;9.276;2023-03-11T10:43:04;138.10;;;128.07;;
16308;SDS011;8263;48.880;9.276;2023-03-11T10:45:34;139.57;;;129.48;;
16308;SDS011;8263;48.880;9.276;2023-03-11T10:48:03;138.43;;;128.43;;
16308;SDS011;8263;48.880;9.276;2023-03-11T10:50:33;138.45;;;128.45;;
16308;SDS011;8263;48.880;9.276;2023-03-11T10:53:05;139.07;;;129.02;;
16308;SDS011;8263;48.880;9.276;2023-03-11T10:55:31;136.82;;;126.93;;
16308;SDS011;8263;48.880;9.276;2023-03-11T10:58:03;137.13;;;127.28;;
16308;SDS011;8263;48.880;9.276;2023-03-11T11:00:30;138.65;;;128.57;;
16308;SDS011;8263;48.880;9.276;2023-03-11T11:02:56;137.55;;;127.65;;
16308;SDS011;8263;48.880;9.276;2023-03-11T11:05:26;134.85;;;125.20;;
16308;SDS011;8263;48.880;9.276;2023-03-11T11:08:00;137.95;;;128.05;;
16308;SDS011;8263;48.880;9.276;2023-03-11T11:10:30;137.15;;;127.32;;
16308;SDS011;8263;48.880;9.276;2023-03-11T11:12:57;137.85;;;127.95;;
16308;SDS011;8263;48.880;9.276;2023-03-11T11:15:24;137.05;;;127.25;;
16308;SDS011;8263;48.880;9.276;2023-03-11T11:17:51;137.90;;;128.00;;
16308;SDS011;8263;48.880;9.276;2023-03-11T11:20:19;137.82;;;127.72;;
16308;SDS011;8263;48.880;9.276;2023-03-11T11:22:47;136.93;;;127.03;;
16308;SDS011;8263;48.880;9.276;2023-03-11T11:25:30;136.93;;;127.07;;
16308;SDS011;8263;48.880;9.276;2023-03-11T11:27:58;136.05;;;126.32;;
16308;SDS011;8263;48.880;9.276;2023-03-11T11:30:25;137.43;;;127.53;;
16308;SDS011;8263;48.880;9.276;2023-03-11T11:32:52;137.73;;;127.63;;
16308;SDS011;8263;48.880;9.276;2023-03-11T11:35:20;136.07;;;126.30;;
16308;SDS011;8263;48.880;9.276;2023-03-11T11:37:47;135.88;;;126.15;;
16308;SDS011;8263;48.880;9.276;2023-03-11T11:43:02;137.82;;;127.93;;
16308;SDS011;8263;48.880;9.276;2023-03-11T11:45:33;137.02;;;127.22;;
16308;SDS011;8263;48.880;9.276;2023-03-11T11:48:03;137.18;;;127.32;;
16308;SDS011;8263;48.880;9.276;2023-03-11T11:50:31;136.18;;;126.30;;
16308;SDS011;8263;48.880;9.276;2023-03-11T11:53:01;137.00;;;127.20;;
16308;SDS011;8263;48.880;9.276;2023-03-11T11:55:28;135.80;;;126.10;;
16308;SDS011;8263;48.880;9.276;2023-03-11T11:57:55;135.50;;;125.80;;
16308;SDS011;8263;48.880;9.276;2023-03-11T12:00:27;136.35;;;126.57;;
16308;SDS011;8263;48.880;9.276;2023-03-11T12:03:04;136.18;;;126.45;;
16308;SDS011;8263;48.880;9.276;2023-03-11T12:05:32;135.10;;;125.50;;
16308;SDS011;8263;48.880;9.276;2023-03-11T12:08:05;135.35;;;125.72;;
16308;SDS011;8263;48.880;9.276;2023-03-11T12:10:33;135.82;;;126.03;;
16308;SDS011;8263;48.880;9.276;2023-03-11T12:15:48;134.70;;;125.10;;
16308;SDS011;8263;48.880;9.276;2023-03-11T12:18:18;135.35;;;125.70;;
16308;SDS011;8263;48.880;9.276;2023-03-11T12:20:48;135.10;;;125.50;;
16308;SDS011;8263;48.880;9.276;2023-03-11T12:23:17;133.73;;;124.22;;
16308;SDS011;8263;48.880;9.276;2023-03-11T12:25:50;134.55;;;125.00;;
16308;SDS011;8263;48.880;9.276;2023-03-11T12:28:19;135.13;;;125.53;;
16308;SDS011;8263;48.880;9.276;2023-03-11T12:30:47;136.00;;;126.30;;
16308;SDS011;8263;48.880;9.276;2023-03-11T12:33:18;134.23;;;124.68;;
16308;SDS011;8263;48.880;9.276;2023-03-11T12:35:48;134.45;;;124.90;;
16308;SDS011;8263;48.880;9.276;2023-03-11T12:38:19;134.95;;;125.35;;
16308;SDS011;8263;48.880;9.276;2023-03-11T12:40:55;136.10;;;125.78;;
16308;SDS011;8263;48.880;9.276;2023-03-11T12:43:23;134.82;;;125.20;;
16308;SDS011;8263;48.880;9.276;2023-03-11T12:45:54;134.13;;;124.60;;
16308;SDS011;8263;48.880;9.276;2023-03-11T12:48:29;133.75;;;124.28;;
16308;SDS011;8263;48.880;9.276;2023-03-11T12:50:56;135.82;;;126.15;;
16308;SDS011;8263;48.880;9.276;2023-03-11T12:53:40;134.20;;;124.65;;
16308;SDS011;8263;48.880;9.276;2023-03-11T12:56:08;136.32;;;126.63;;
16308;SDS011;8263;48.880;9.276;2023-03-11T12:58:52;134.07;;;124.57;;
16308;SDS011;8263;48.880;9.276;2023-03-11T13:01:34;135.20;;;125.60;;
16308;SDS011;8263;48.880;9.276;2023-03-11T13:04:08;135.70;;;126.00;;
16308;SDS011;8263;48.880;9.276;2023-03-11T13:06:43;132.63;;;123.25;;
16308;SDS011;8263;48.880;9.276;2023-03-11T13:09:12;133.45;;;124.03;;
16308;SDS011;8263;48.880;9.276;2023-03-11T13:11:40;133.35;;;123.93;;
16308;SDS011;8263;48.880;9.276;2023-03-11T13:14:08;133.57;;;124.18;;
16308;SDS011;8263;48.880;9.276;2023-03-11T13:16:36;134.70;;;125.10;;
16308;SDS011;8263;48.880;9.276;2023-03-11T13:21:49;135.52;;;125.85;;
16308;SDS011;8263;48.880;9.276;2023-03-11T13:27:12;133.75;;;124.32;;
16308;SDS011;8263;48.880;9.276;2023-03-11T13:29:49;133.18;;;123.78;;
16308;SDS011;8263;48.880;9.276;2023-03-11T13:32:24;133.48;;;124.07;;
16308;SDS011;8263;48.880;9.276;2023-03-11T13:34:53;131.77;;;122.50;;
16308;SDS011;8263;48.880;9.276;2023-03-11T13:37:28;134.20;;;124.68;;
16308;SDS011;8263;48.880;9.276;2023-03-11T13:40:05;131.45;;;122.22;;
16308;SDS011;8263;48.880;9.276;2023-03-11T13:42:40;132.40;;;123.00;;
16308;SDS011;8263;48.880;9.276;2023-03-11T13:45:11;130.82;;;121.22;;
16308;SDS011;8263;48.880;9.276;2023-03-11T13:47:40;130.20;;;120.60;;
16308;SDS011;8263;48.880;9.276;2023-03-11T13:50:11;131.02;;;121.82;;
16308;SDS011;8263;48.880;9.276;2023-03-11T13:52:43;133.25;;;123.85;;
16308;SDS011;8263;48.880;9.276;2023-03-11T13:55:15;131.32;;;122.13;;
16308;SDS011;8263;48.880;9.276;2023-03-11T13:57:48;129.93;;;120.88;;
16308;SDS011;8263;48.880;9.276;2023-03-11T14:00:15;130.65;;;121.55;;
16308;SDS011;8263;48.880;9.276;2023-03-11T14:02:44;131.38;;;122.18;;
16308;SDS011;8263;48.880;9.276;2023-03-11T14:05:12;129.95;;;120.88;;
16308;SDS011;8263;48.880;9.276;2023-03-11T14:07:41;133.18;;;123.65;;
16308;SDS011;8263;48.880;9.276;2023-03-11T14:10:14;130.27;;;121.15;;
16308;SDS011;8263;48.880;9.276;2023-03-11T14:12:41;131.43;;;122.22;;
16308;SDS011;8263;48.880;9.276;2023-03-11T14:15:08;127.13;;;118.32;;
16308;SDS011;8263;48.880;9.276;2023-03-11T14:17:38;130.82;;;121.63;;
16308;SDS011;8263;48.880;9.276;2023-03-11T14:20:05;130.82;;;121.63;;
16308;SDS011;8263;48.880;9.276;2023-03-11T14:22:34;129.35;;;120.35;;
16308;SDS011;8263;48.880;9.276;2023-03-11T14:25:05;129.68;;;120.57;;
16308;SDS011;8263;48.880;9.276;2023-03-11T14:27:32;130.27;;;121.18;;